KMWC/MWC METAR and TAF weather

Enter ICAO airport designator
Station Type Date Time Source
KMWC METAR 2019/12/16 05:55 UTC NOAA

KMWC 160555Z AUTO 27005KT 5SM -SN BKN030 OVC035 M05/M10 A3014 RMK AO2


Station Type Date Time Source
KMWC Decoded METAR 2019/12/16 05:55 UTC NOAA

Milwaukee / Timmerman, WI, United States (KMWC) 43-07N 088-02W
Dec 16, 2019 - 12:55 AM EST / 2019.12.16 0555 UTC
Wind: from the W (270 degrees) at 6 MPH (5 KT):0
Visibility: 5 mile(s):0
Sky conditions: overcast
Weather: light snow
Temperature: 23 F (-5 C)
Windchill: 15 F (-9 C):1
Dew Point: 14 F (-10 C)
Relative Humidity: 67%
Pressure (altimeter): 30.14 in. Hg (1020 hPa)
ob: KMWC 160555Z AUTO 27005KT 5SM -SN BKN030 OVC035 M05/M10 A3014 RMK AO2
cycle: 6

Station Type Date Time Source
KMWC TAF UTC NOAA

Error!

Example: see airport list